Carrigaline, Ireland
Current Conditions -  °F | °C
As of 4:30 PM on Wednesday 28 Jan 2015 (Local Time) from EICK Reporting Station
Broken Clouds Broken Clouds  
Wind Chill: -2°   Ceiling: 6000
Heat Index:   Visibility: 6mi
Dew Point:   Wind: 15mph
Humidity: 87%   Direction: 270°W
Pressure: 29.74"   Gusts: 26mph
Location:  51.81°N, 8.39°W
Report Text: EICK 281630Z 27013G23KT 9999 FEW006 SCT016CB BKN060 03/01 Q1007 TEMPO 4000
Loading
Personal Weather Stations






























Interactive Weather Map New forecast layout! Learn more

10-Day Weather Forecast

Advertisements
Track Severe Weather on mobile